HECAHESN

Guest
Details From HECA - Cairo Intl
To HESN - ASWAN INTL
Flight Number -
Tags decoded
Created
Modified
Stats Distance 380 nm / 703 km
Max Altitude 0 ft / 0 m
Waypoints 4
Social Downloads 0
Likes 0
Share VATSIM

Download

Looking for another format? Having issues loading an existing format? Contact us
Advertisement - Login to hide

Notes

Requested: HECA CV0 A727 LXR R605 ASN HESN Unmatched points: CV0 A727 R605

Route

HECA LXR ASN HESN

ID Type Via Altitude Latitude Longitude Leg Dist Tot Dist Heading (true) Name
O HECA APT - 0 ft / 0 m 30.12181˚ 31.40610˚ - 0 nm - Cairo Intl
LXR VOR - 0 ft / 0 m 25.74939˚ 32.76858˚ 272 nm 272 nm 164° / 165° LUXOR VOR-DME
ASN VOR - 0 ft / 0 m 23.97178˚ 32.81696˚ 106 nm 379 nm 179° / 179° ASWAN VOR-DME
O HESN APT - 0 ft / 0 m 23.96436˚ 32.81997˚ 0 nm 379 nm 160° / 160° ASWAN INTL

Altitude Profile

Advertisement - Login to hide

Weather


0- 5 10 15 20 25 30 35+ Temperature / ° C

Clouds and Precipitation
Forecast for 2017-12-16 18:00 UTC. Updated 2 hours ago

Ground ~20,000 ft ~40,000 ft Winds

HECA

Details ICAO HECA (CAI)
Name Cairo Intl
Region Egypt
Timezone Africa/Cairo (UTC+2.0)
Stats Elevation 382 ft / 116 m (AMSL)
Location 30.121808° 31.406095°
Runways 3
Magnetic Variation 4.404° E

METAR

HECA 161900Z 05006KT CAVOK 18/13 Q1021 NOSIG

Decode

TAF

TAF HECA 161700Z 1618/1724 01009KT CAVOK TEMPO 1702/1706 VRB03KT 4000 BR NSC

Decode

Departure Runways

ID Width Length Bearing (true) Bearing (mag) Surface Threshold Offset Overrun Length
05L 197 ft / 60 m 10,833 ft / 3,302 m 49.29° 44.89° Asphalt 0 ft / 0 m 185 ft / 56 m
05R 197 ft / 60 m 13,126 ft / 4,001 m 49.03° 44.63° Asphalt 0 ft / 0 m 216 ft / 66 m
16 197 ft / 60 m 10,456 ft / 3,187 m 162.61° 158.21° Asphalt 0 ft / 0 m 125 ft / 38 m
23L 197 ft / 60 m 13,126 ft / 4,001 m 229.05° 224.65° Asphalt 0 ft / 0 m 225 ft / 69 m
23R 197 ft / 60 m 10,833 ft / 3,302 m 229.30° 224.90° Asphalt 0 ft / 0 m 185 ft / 56 m
34 197 ft / 60 m 10,456 ft / 3,187 m 342.61° 338.21° Asphalt 0 ft / 0 m 195 ft / 59 m

HESN

Details ICAO HESN (ASW)
Name ASWAN INTL
Region Egypt
Timezone Africa/Cairo (UTC+2.0)
Stats Elevation 662 ft / 202 m (AMSL)
Location 23.964355° 32.819975°
Runways 1
Magnetic Variation 3.959° E

METAR

HESN 161800Z 35005KT CAVOK 21/06 Q1018 NOSIG

Decode

TAF

Not found

Destination Runways

ID Width Length Bearing (true) Bearing (mag) Surface Threshold Offset Overrun Length
17 148 ft / 45 m 11,207 ft / 3,416 m 170.93° 166.97° Asphalt 0 ft / 0 m 197 ft / 60 m
35 148 ft / 45 m 11,207 ft / 3,416 m 350.93° 346.97° Asphalt 0 ft / 0 m 197 ft / 60 m

Approach Navaids

Runway Type Ident Frequency Range Bearing (true) Bearing (mag) Slope Elevation
35 Localiser AIL 109.50 MHz 18 nm / 33 km 350.94° 346.98° - 623 ft / 190 m (AMSL)
35 Glidescope AIL 109.50 MHz 10 nm / 19 km 350.93° 346.97° 3.00° 682 ft / 208 m (AMSL)
35 DME AIL 109.50 MHz 18 nm / 33 km - - - 682 ft / 208 m (AMSL)

Popular Alternatives